sensor_id;sensor_type;location;lat;lon;timestamp;P1;durP1;ratioP1;P2;durP2;ratioP2
8704;SDS011;4389;41.932;25.904;2024-02-28T00:00:41;27.37;;;19.27;;
8704;SDS011;4389;41.932;25.904;2024-02-28T00:03:08;31.50;;;20.80;;
8704;SDS011;4389;41.932;25.904;2024-02-28T00:05:35;32.50;;;20.40;;
8704;SDS011;4389;41.932;25.904;2024-02-28T00:08:03;28.77;;;20.00;;
8704;SDS011;4389;41.932;25.904;2024-02-28T00:10:31;30.83;;;19.17;;
8704;SDS011;4389;41.932;25.904;2024-02-28T00:12:58;27.40;;;10.20;;
8704;SDS011;4389;41.932;25.904;2024-02-28T00:15:25;24.27;;;9.77;;
8704;SDS011;4389;41.932;25.904;2024-02-28T00:17:54;19.40;;;10.90;;
8704;SDS011;4389;41.932;25.904;2024-02-28T00:20:21;25.10;;;11.00;;
8704;SDS011;4389;41.932;25.904;2024-02-28T00:22:49;20.40;;;10.07;;
8704;SDS011;4389;41.932;25.904;2024-02-28T00:25:17;21.07;;;9.83;;
8704;SDS011;4389;41.932;25.904;2024-02-28T00:27:44;20.40;;;10.47;;
8704;SDS011;4389;41.932;25.904;2024-02-28T00:30:11;32.87;;;11.30;;
8704;SDS011;4389;41.932;25.904;2024-02-28T00:32:38;18.33;;;10.37;;
8704;SDS011;4389;41.932;25.904;2024-02-28T00:35:05;21.97;;;10.33;;
8704;SDS011;4389;41.932;25.904;2024-02-28T00:37:33;60.03;;;12.40;;
8704;SDS011;4389;41.932;25.904;2024-02-28T00:40:00;29.53;;;11.40;;
8704;SDS011;4389;41.932;25.904;2024-02-28T00:42:28;62.87;;;13.93;;
8704;SDS011;4389;41.932;25.904;2024-02-28T00:44:55;25.37;;;10.60;;
8704;SDS011;4389;41.932;25.904;2024-02-28T00:47:22;29.33;;;10.87;;
8704;SDS011;4389;41.932;25.904;2024-02-28T00:49:49;135.77;;;17.00;;
8704;SDS011;4389;41.932;25.904;2024-02-28T00:52:15;35.73;;;12.20;;
8704;SDS011;4389;41.932;25.904;2024-02-28T00:54:42;23.83;;;10.70;;
8704;SDS011;4389;41.932;25.904;2024-02-28T00:57:09;22.53;;;11.30;;
8704;SDS011;4389;41.932;25.904;2024-02-28T00:59:37;17.63;;;10.03;;
8704;SDS011;4389;41.932;25.904;2024-02-28T01:02:04;18.50;;;9.30;;
8704;SDS011;4389;41.932;25.904;2024-02-28T01:04:31;22.10;;;10.23;;
8704;SDS011;4389;41.932;25.904;2024-02-28T01:06:58;25.10;;;10.53;;
8704;SDS011;4389;41.932;25.904;2024-02-28T01:09:25;29.17;;;9.87;;
8704;SDS011;4389;41.932;25.904;2024-02-28T01:11:52;22.30;;;10.07;;
8704;SDS011;4389;41.932;25.904;2024-02-28T01:14:18;20.57;;;9.03;;
8704;SDS011;4389;41.932;25.904;2024-02-28T01:16:46;18.03;;;9.30;;
8704;SDS011;4389;41.932;25.904;2024-02-28T01:19:15;28.10;;;11.17;;
8704;SDS011;4389;41.932;25.904;2024-02-28T01:21:42;16.17;;;9.03;;
8704;SDS011;4389;41.932;25.904;2024-02-28T01:24:09;26.47;;;10.00;;
8704;SDS011;4389;41.932;25.904;2024-02-28T01:26:35;19.57;;;11.00;;
8704;SDS011;4389;41.932;25.904;2024-02-28T01:29:02;19.37;;;10.33;;
8704;SDS011;4389;41.932;25.904;2024-02-28T01:31:29;21.33;;;9.83;;
8704;SDS011;4389;41.932;25.904;2024-02-28T01:33:57;27.40;;;10.80;;
8704;SDS011;4389;41.932;25.904;2024-02-28T01:36:24;23.70;;;10.60;;
8704;SDS011;4389;41.932;25.904;2024-02-28T01:38:51;23.93;;;11.30;;
8704;SDS011;4389;41.932;25.904;2024-02-28T01:41:19;21.43;;;11.97;;
8704;SDS011;4389;41.932;25.904;2024-02-28T01:43:46;20.60;;;13.33;;
8704;SDS011;4389;41.932;25.904;2024-02-28T01:46:17;20.70;;;15.20;;
8704;SDS011;4389;41.932;25.904;2024-02-28T01:48:48;33.13;;;15.47;;
8704;SDS011;4389;41.932;25.904;2024-02-28T01:51:17;27.93;;;17.00;;
8704;SDS011;4389;41.932;25.904;2024-02-28T01:53:44;21.80;;;15.07;;
8704;SDS011;4389;41.932;25.904;2024-02-28T01:56:11;25.33;;;15.57;;
8704;SDS011;4389;41.932;25.904;2024-02-28T01:58:39;19.73;;;13.90;;
8704;SDS011;4389;41.932;25.904;2024-02-28T02:01:06;24.17;;;16.17;;
8704;SDS011;4389;41.932;25.904;2024-02-28T02:03:35;29.00;;;16.03;;
8704;SDS011;4389;41.932;25.904;2024-02-28T02:06:02;23.90;;;15.67;;
8704;SDS011;4389;41.932;25.904;2024-02-28T02:08:31;24.87;;;15.90;;
8704;SDS011;4389;41.932;25.904;2024-02-28T02:10:59;27.40;;;16.70;;
8704;SDS011;4389;41.932;25.904;2024-02-28T02:13:26;24.87;;;18.03;;
8704;SDS011;4389;41.932;25.904;2024-02-28T02:15:53;33.93;;;18.07;;
8704;SDS011;4389;41.932;25.904;2024-02-28T02:18:19;26.03;;;18.37;;
8704;SDS011;4389;41.932;25.904;2024-02-28T02:20:48;34.33;;;18.23;;
8704;SDS011;4389;41.932;25.904;2024-02-28T02:23:20;28.50;;;18.57;;
8704;SDS011;4389;41.932;25.904;2024-02-28T02:25:47;29.37;;;17.83;;
8704;SDS011;4389;41.932;25.904;2024-02-28T02:28:23;28.86;;;18.56;;
8704;SDS011;4389;41.932;25.904;2024-02-28T02:30:50;26.60;;;16.83;;
8704;SDS011;4389;41.932;25.904;2024-02-28T02:33:17;25.47;;;15.83;;
8704;SDS011;4389;41.932;25.904;2024-02-28T02:35:43;28.37;;;15.53;;
8704;SDS011;4389;41.932;25.904;2024-02-28T02:38:10;22.33;;;14.80;;
8704;SDS011;4389;41.932;25.904;2024-02-28T02:40:38;22.13;;;14.93;;
8704;SDS011;4389;41.932;25.904;2024-02-28T02:43:05;27.43;;;15.60;;
8704;SDS011;4389;41.932;25.904;2024-02-28T02:45:32;22.07;;;16.00;;
8704;SDS011;4389;41.932;25.904;2024-02-28T02:47:59;28.97;;;19.37;;
8704;SDS011;4389;41.932;25.904;2024-02-28T02:50:25;29.27;;;18.87;;
8704;SDS011;4389;41.932;25.904;2024-02-28T02:52:52;33.00;;;19.83;;
8704;SDS011;4389;41.932;25.904;2024-02-28T02:55:19;37.23;;;23.37;;
8704;SDS011;4389;41.932;25.904;2024-02-28T02:57:47;38.30;;;27.63;;
8704;SDS011;4389;41.932;25.904;2024-02-28T03:00:14;43.00;;;24.47;;
8704;SDS011;4389;41.932;25.904;2024-02-28T03:02:41;27.87;;;18.03;;
8704;SDS011;4389;41.932;25.904;2024-02-28T03:05:08;27.33;;;15.87;;
8704;SDS011;4389;41.932;25.904;2024-02-28T03:07:35;26.07;;;13.63;;
8704;SDS011;4389;41.932;25.904;2024-02-28T03:10:02;25.77;;;14.73;;
8704;SDS011;4389;41.932;25.904;2024-02-28T03:12:29;24.70;;;15.43;;
8704;SDS011;4389;41.932;25.904;2024-02-28T03:14:57;21.03;;;14.57;;
8704;SDS011;4389;41.932;25.904;2024-02-28T03:17:24;19.90;;;14.13;;
8704;SDS011;4389;41.932;25.904;2024-02-28T03:19:51;24.83;;;14.37;;
8704;SDS011;4389;41.932;25.904;2024-02-28T03:22:18;22.70;;;12.90;;
8704;SDS011;4389;41.932;25.904;2024-02-28T03:24:44;26.07;;;13.03;;
8704;SDS011;4389;41.932;25.904;2024-02-28T03:27:11;21.70;;;13.07;;
8704;SDS011;4389;41.932;25.904;2024-02-28T03:29:38;17.77;;;12.43;;
8704;SDS011;4389;41.932;25.904;2024-02-28T03:32:06;25.77;;;12.07;;
8704;SDS011;4389;41.932;25.904;2024-02-28T03:34:34;18.60;;;12.13;;
8704;SDS011;4389;41.932;25.904;2024-02-28T03:37:01;19.10;;;12.23;;
8704;SDS011;4389;41.932;25.904;2024-02-28T03:39:28;22.30;;;12.37;;
8704;SDS011;4389;41.932;25.904;2024-02-28T03:41:55;26.82;;;11.78;;
8704;SDS011;4389;41.932;25.904;2024-02-28T03:44:22;21.57;;;13.70;;
8704;SDS011;4389;41.932;25.904;2024-02-28T03:46:50;32.03;;;13.63;;
8704;SDS011;4389;41.932;25.904;2024-02-28T03:49:19;18.90;;;12.00;;
8704;SDS011;4389;41.932;25.904;2024-02-28T03:51:45;25.77;;;13.20;;
8704;SDS011;4389;41.932;25.904;2024-02-28T03:54:12;28.50;;;13.93;;
8704;SDS011;4389;41.932;25.904;2024-02-28T03:56:39;23.40;;;13.83;;
8704;SDS011;4389;41.932;25.904;2024-02-28T03:59:06;23.97;;;13.77;;
8704;SDS011;4389;41.932;25.904;2024-02-28T04:01:32;20.83;;;14.77;;
8704;SDS011;4389;41.932;25.904;2024-02-28T04:03:59;26.67;;;12.43;;
8704;SDS011;4389;41.932;25.904;2024-02-28T04:06:28;37.77;;;11.90;;
8704;SDS011;4389;41.932;25.904;2024-02-28T04:08:56;21.20;;;10.37;;
8704;SDS011;4389;41.932;25.904;2024-02-28T04:11:22;26.33;;;11.23;;
8704;SDS011;4389;41.932;25.904;2024-02-28T04:13:49;25.23;;;11.47;;
8704;SDS011;4389;41.932;25.904;2024-02-28T04:16:16;26.70;;;12.27;;
8704;SDS011;4389;41.932;25.904;2024-02-28T04:18:43;28.07;;;13.33;;
8704;SDS011;4389;41.932;25.904;2024-02-28T04:21:10;19.40;;;10.47;;
8704;SDS011;4389;41.932;25.904;2024-02-28T04:23:38;21.37;;;11.20;;
8704;SDS011;4389;41.932;25.904;2024-02-28T04:26:07;19.83;;;10.83;;
8704;SDS011;4389;41.932;25.904;2024-02-28T04:28:34;22.37;;;12.27;;
8704;SDS011;4389;41.932;25.904;2024-02-28T04:31:01;16.53;;;12.03;;
8704;SDS011;4389;41.932;25.904;2024-02-28T04:33:28;24.93;;;12.97;;
8704;SDS011;4389;41.932;25.904;2024-02-28T04:35:55;19.47;;;10.53;;
8704;SDS011;4389;41.932;25.904;2024-02-28T04:38:22;21.37;;;11.37;;
8704;SDS011;4389;41.932;25.904;2024-02-28T04:40:50;23.13;;;13.17;;
8704;SDS011;4389;41.932;25.904;2024-02-28T04:43:17;21.03;;;11.83;;
8704;SDS011;4389;41.932;25.904;2024-02-28T04:45:44;29.77;;;14.13;;
8704;SDS011;4389;41.932;25.904;2024-02-28T04:48:11;22.07;;;12.77;;
8704;SDS011;4389;41.932;25.904;2024-02-28T04:50:37;31.10;;;13.33;;
8704;SDS011;4389;41.932;25.904;2024-02-28T04:53:04;27.57;;;13.80;;
8704;SDS011;4389;41.932;25.904;2024-02-28T04:55:31;30.63;;;14.80;;
8704;SDS011;4389;41.932;25.904;2024-02-28T04:57:59;26.30;;;14.73;;
8704;SDS011;4389;41.932;25.904;2024-02-28T05:00:26;21.40;;;12.43;;
8704;SDS011;4389;41.932;25.904;2024-02-28T05:02:53;29.20;;;11.70;;
8704;SDS011;4389;41.932;25.904;2024-02-28T05:05:19;17.87;;;11.57;;
8704;SDS011;4389;41.932;25.904;2024-02-28T05:07:46;22.70;;;11.33;;
8704;SDS011;4389;41.932;25.904;2024-02-28T05:10:13;22.67;;;10.10;;
8704;SDS011;4389;41.932;25.904;2024-02-28T05:12:40;18.00;;;10.27;;
8704;SDS011;4389;41.932;25.904;2024-02-28T05:15:09;31.27;;;19.53;;
8704;SDS011;4389;41.932;25.904;2024-02-28T05:17:36;31.30;;;19.80;;
8704;SDS011;4389;41.932;25.904;2024-02-28T05:20:03;27.87;;;16.27;;
8704;SDS011;4389;41.932;25.904;2024-02-28T05:22:30;29.50;;;15.83;;
8704;SDS011;4389;41.932;25.904;2024-02-28T05:24:57;23.50;;;14.23;;
8704;SDS011;4389;41.932;25.904;2024-02-28T05:27:24;21.20;;;13.27;;
8704;SDS011;4389;41.932;25.904;2024-02-28T05:29:51;32.87;;;12.73;;
8704;SDS011;4389;41.932;25.904;2024-02-28T05:32:19;36.10;;;11.73;;
8704;SDS011;4389;41.932;25.904;2024-02-28T05:34:46;37.80;;;11.93;;
8704;SDS011;4389;41.932;25.904;2024-02-28T05:37:13;42.37;;;12.97;;
8704;SDS011;4389;41.932;25.904;2024-02-28T05:39:42;47.87;;;16.60;;
8704;SDS011;4389;41.932;25.904;2024-02-28T05:42:09;61.30;;;16.10;;
8704;SDS011;4389;41.932;25.904;2024-02-28T05:44:35;70.97;;;16.50;;
8704;SDS011;4389;41.932;25.904;2024-02-28T05:47:02;75.67;;;17.43;;
8704;SDS011;4389;41.932;25.904;2024-02-28T05:49:30;68.37;;;17.33;;
8704;SDS011;4389;41.932;25.904;2024-02-28T05:51:57;93.20;;;18.43;;
8704;SDS011;4389;41.932;25.904;2024-02-28T05:54:24;126.10;;;17.97;;
8704;SDS011;4389;41.932;25.904;2024-02-28T05:56:51;92.30;;;17.97;;
8704;SDS011;4389;41.932;25.904;2024-02-28T05:59:18;70.93;;;17.23;;
8704;SDS011;4389;41.932;25.904;2024-02-28T06:01:44;58.63;;;15.40;;
8704;SDS011;4389;41.932;25.904;2024-02-28T06:04:11;81.27;;;15.30;;
8704;SDS011;4389;41.932;25.904;2024-02-28T06:06:41;35.10;;;12.37;;
8704;SDS011;4389;41.932;25.904;2024-02-28T06:09:07;116.30;;;14.63;;
8704;SDS011;4389;41.932;25.904;2024-02-28T06:11:35;71.63;;;14.97;;
8704;SDS011;4389;41.932;25.904;2024-02-28T06:14:02;76.03;;;16.43;;
8704;SDS011;4389;41.932;25.904;2024-02-28T06:16:29;69.93;;;31.10;;
8704;SDS011;4389;41.932;25.904;2024-02-28T06:18:56;87.63;;;48.10;;
8704;SDS011;4389;41.932;25.904;2024-02-28T06:21:23;65.10;;;33.77;;
8704;SDS011;4389;41.932;25.904;2024-02-28T06:23:51;78.60;;;28.60;;
8704;SDS011;4389;41.932;25.904;2024-02-28T06:26:18;69.93;;;29.60;;
8704;SDS011;4389;41.932;25.904;2024-02-28T06:28:45;80.67;;;37.20;;
8704;SDS011;4389;41.932;25.904;2024-02-28T06:31:13;120.30;;;37.60;;
8704;SDS011;4389;41.932;25.904;2024-02-28T06:33:41;62.87;;;34.03;;
8704;SDS011;4389;41.932;25.904;2024-02-28T06:36:08;76.30;;;33.87;;
8704;SDS011;4389;41.932;25.904;2024-02-28T06:38:35;62.83;;;33.93;;
8704;SDS011;4389;41.932;25.904;2024-02-28T06:41:03;71.57;;;32.43;;
8704;SDS011;4389;41.932;25.904;2024-02-28T06:43:32;81.97;;;29.33;;
8704;SDS011;4389;41.932;25.904;2024-02-28T06:46:00;53.67;;;22.27;;
8704;SDS011;4389;41.932;25.904;2024-02-28T06:48:27;61.57;;;24.63;;
8704;SDS011;4389;41.932;25.904;2024-02-28T06:50:54;49.77;;;24.90;;
8704;SDS011;4389;41.932;25.904;2024-02-28T06:53:22;48.13;;;21.40;;
8704;SDS011;4389;41.932;25.904;2024-02-28T06:55:49;41.67;;;21.47;;
8704;SDS011;4389;41.932;25.904;2024-02-28T06:58:17;38.77;;;20.33;;
8704;SDS011;4389;41.932;25.904;2024-02-28T07:00:44;45.00;;;19.80;;
8704;SDS011;4389;41.932;25.904;2024-02-28T07:03:11;32.10;;;17.37;;
8704;SDS011;4389;41.932;25.904;2024-02-28T07:05:38;33.30;;;16.80;;
8704;SDS011;4389;41.932;25.904;2024-02-28T07:08:04;34.23;;;17.03;;
8704;SDS011;4389;41.932;25.904;2024-02-28T07:10:31;33.67;;;17.47;;
8704;SDS011;4389;41.932;25.904;2024-02-28T07:12:58;33.17;;;18.47;;
8704;SDS011;4389;41.932;25.904;2024-02-28T07:15:26;34.43;;;20.97;;
8704;SDS011;4389;41.932;25.904;2024-02-28T07:17:53;41.10;;;24.90;;
8704;SDS011;4389;41.932;25.904;2024-02-28T07:20:20;57.30;;;24.27;;
8704;SDS011;4389;41.932;25.904;2024-02-28T07:22:47;36.57;;;20.70;;
8704;SDS011;4389;41.932;25.904;2024-02-28T07:25:14;48.07;;;22.23;;
8704;SDS011;4389;41.932;25.904;2024-02-28T07:27:40;39.03;;;22.13;;
8704;SDS011;4389;41.932;25.904;2024-02-28T07:30:07;43.80;;;22.67;;
8704;SDS011;4389;41.932;25.904;2024-02-28T07:32:36;48.77;;;22.20;;
8704;SDS011;4389;41.932;25.904;2024-02-28T07:35:03;47.47;;;21.10;;
8704;SDS011;4389;41.932;25.904;2024-02-28T07:37:30;46.17;;;19.77;;
8704;SDS011;4389;41.932;25.904;2024-02-28T07:39:57;30.10;;;16.93;;
8704;SDS011;4389;41.932;25.904;2024-02-28T07:42:25;33.90;;;17.17;;
8704;SDS011;4389;41.932;25.904;2024-02-28T07:44:52;31.47;;;16.60;;
8704;SDS011;4389;41.932;25.904;2024-02-28T07:47:22;32.73;;;18.23;;
8704;SDS011;4389;41.932;25.904;2024-02-28T07:49:51;35.57;;;17.43;;
8704;SDS011;4389;41.932;25.904;2024-02-28T07:52:18;33.53;;;16.70;;
8704;SDS011;4389;41.932;25.904;2024-02-28T07:54:45;28.10;;;16.23;;
8704;SDS011;4389;41.932;25.904;2024-02-28T07:57:12;43.13;;;17.03;;
8704;SDS011;4389;41.932;25.904;2024-02-28T07:59:40;33.00;;;17.83;;
8704;SDS011;4389;41.932;25.904;2024-02-28T08:02:07;34.83;;;18.60;;
8704;SDS011;4389;41.932;25.904;2024-02-28T08:04:35;28.57;;;16.40;;
8704;SDS011;4389;41.932;25.904;2024-02-28T08:07:03;36.57;;;17.60;;
8704;SDS011;4389;41.932;25.904;2024-02-28T08:09:30;32.13;;;17.47;;
8704;SDS011;4389;41.932;25.904;2024-02-28T08:11:57;30.73;;;16.10;;
8704;SDS011;4389;41.932;25.904;2024-02-28T08:14:24;33.43;;;17.53;;
8704;SDS011;4389;41.932;25.904;2024-02-28T08:16:51;43.50;;;18.80;;
8704;SDS011;4389;41.932;25.904;2024-02-28T08:19:18;51.87;;;18.40;;
8704;SDS011;4389;41.932;25.904;2024-02-28T08:21:44;27.10;;;16.63;;
8704;SDS011;4389;41.932;25.904;2024-02-28T08:24:13;41.07;;;17.23;;
8704;SDS011;4389;41.932;25.904;2024-02-28T08:26:40;36.37;;;16.43;;
8704;SDS011;4389;41.932;25.904;2024-02-28T08:29:07;27.97;;;14.80;;
8704;SDS011;4389;41.932;25.904;2024-02-28T08:31:39;21.37;;;15.83;;
8704;SDS011;4389;41.932;25.904;2024-02-28T08:34:06;22.60;;;14.43;;
8704;SDS011;4389;41.932;25.904;2024-02-28T08:36:33;25.53;;;16.33;;
8704;SDS011;4389;41.932;25.904;2024-02-28T08:39:00;22.40;;;14.17;;
8704;SDS011;4389;41.932;25.904;2024-02-28T08:41:31;22.67;;;14.50;;
8704;SDS011;4389;41.932;25.904;2024-02-28T08:43:58;18.37;;;13.83;;
8704;SDS011;4389;41.932;25.904;2024-02-28T08:46:25;19.53;;;14.80;;
8704;SDS011;4389;41.932;25.904;2024-02-28T08:48:51;24.30;;;14.87;;
8704;SDS011;4389;41.932;25.904;2024-02-28T08:51:18;22.57;;;15.20;;
8704;SDS011;4389;41.932;25.904;2024-02-28T08:53:45;20.30;;;13.90;;
8704;SDS011;4389;41.932;25.904;2024-02-28T08:56:12;18.77;;;12.83;;
8704;SDS011;4389;41.932;25.904;2024-02-28T08:58:40;26.37;;;13.07;;
8704;SDS011;4389;41.932;25.904;2024-02-28T09:01:07;34.07;;;23.50;;
8704;SDS011;4389;41.932;25.904;2024-02-28T09:03:34;44.77;;;18.90;;
8704;SDS011;4389;41.932;25.904;2024-02-28T09:06:01;60.30;;;18.03;;
8704;SDS011;4389;41.932;25.904;2024-02-28T09:08:28;24.10;;;12.43;;
8704;SDS011;4389;41.932;25.904;2024-02-28T09:10:55;25.90;;;14.40;;
8704;SDS011;4389;41.932;25.904;2024-02-28T09:13:22;27.43;;;14.20;;
8704;SDS011;4389;41.932;25.904;2024-02-28T09:15:50;22.00;;;13.63;;
8704;SDS011;4389;41.932;25.904;2024-02-28T09:18:17;24.87;;;15.43;;
8704;SDS011;4389;41.932;25.904;2024-02-28T09:20:44;25.90;;;15.20;;
8704;SDS011;4389;41.932;25.904;2024-02-28T09:23:11;28.90;;;14.33;;
8704;SDS011;4389;41.932;25.904;2024-02-28T09:25:38;37.93;;;17.13;;
8704;SDS011;4389;41.932;25.904;2024-02-28T09:28:05;23.90;;;15.57;;
8704;SDS011;4389;41.932;25.904;2024-02-28T09:30:32;24.43;;;14.10;;
8704;SDS011;4389;41.932;25.904;2024-02-28T09:33:00;29.90;;;16.40;;
8704;SDS011;4389;41.932;25.904;2024-02-28T09:35:27;33.20;;;14.77;;
8704;SDS011;4389;41.932;25.904;2024-02-28T09:37:54;29.70;;;14.60;;
8704;SDS011;4389;41.932;25.904;2024-02-28T09:40:21;30.03;;;14.93;;
8704;SDS011;4389;41.932;25.904;2024-02-28T09:42:50;22.53;;;13.73;;
8704;SDS011;4389;41.932;25.904;2024-02-28T09:45:19;22.93;;;13.97;;
8704;SDS011;4389;41.932;25.904;2024-02-28T09:47:47;30.47;;;14.27;;
8704;SDS011;4389;41.932;25.904;2024-02-28T09:50:16;29.73;;;14.50;;
8704;SDS011;4389;41.932;25.904;2024-02-28T09:52:44;22.90;;;15.63;;
8704;SDS011;4389;41.932;25.904;2024-02-28T09:55:11;27.57;;;14.63;;
8704;SDS011;4389;41.932;25.904;2024-02-28T09:57:38;21.07;;;14.83;;
8704;SDS011;4389;41.932;25.904;2024-02-28T10:00:06;28.90;;;16.37;;
8704;SDS011;4389;41.932;25.904;2024-02-28T10:02:35;32.00;;;17.23;;
8704;SDS011;4389;41.932;25.904;2024-02-28T10:05:05;51.37;;;18.10;;
8704;SDS011;4389;41.932;25.904;2024-02-28T10:07:34;27.53;;;16.93;;
8704;SDS011;4389;41.932;25.904;2024-02-28T10:10:02;27.47;;;17.60;;
8704;SDS011;4389;41.932;25.904;2024-02-28T10:12:30;40.97;;;17.30;;
8704;SDS011;4389;41.932;25.904;2024-02-28T10:14:57;28.37;;;16.93;;
8704;SDS011;4389;41.932;25.904;2024-02-28T10:17:23;27.10;;;17.87;;
8704;SDS011;4389;41.932;25.904;2024-02-28T10:19:51;34.73;;;19.07;;
8704;SDS011;4389;41.932;25.904;2024-02-28T10:22:18;31.53;;;19.77;;
8704;SDS011;4389;41.932;25.904;2024-02-28T10:24:46;29.20;;;17.83;;
8704;SDS011;4389;41.932;25.904;2024-02-28T10:27:15;34.27;;;19.57;;
8704;SDS011;4389;41.932;25.904;2024-02-28T10:29:44;30.73;;;19.27;;
8704;SDS011;4389;41.932;25.904;2024-02-28T10:32:11;30.17;;;15.80;;
8704;SDS011;4389;41.932;25.904;2024-02-28T10:34:38;30.80;;;15.90;;
8704;SDS011;4389;41.932;25.904;2024-02-28T10:37:06;31.43;;;16.00;;
8704;SDS011;4389;41.932;25.904;2024-02-28T10:39:33;30.77;;;14.77;;
8704;SDS011;4389;41.932;25.904;2024-02-28T10:42:03;22.80;;;14.17;;
8704;SDS011;4389;41.932;25.904;2024-02-28T10:44:30;26.53;;;12.87;;
8704;SDS011;4389;41.932;25.904;2024-02-28T10:46:59;24.87;;;14.47;;
8704;SDS011;4389;41.932;25.904;2024-02-28T10:49:27;24.83;;;15.47;;
8704;SDS011;4389;41.932;25.904;2024-02-28T10:51:56;23.13;;;16.37;;
8704;SDS011;4389;41.932;25.904;2024-02-28T10:54:24;23.30;;;14.83;;
8704;SDS011;4389;41.932;25.904;2024-02-28T10:56:51;26.57;;;14.97;;
8704;SDS011;4389;41.932;25.904;2024-02-28T10:59:21;24.30;;;13.83;;
8704;SDS011;4389;41.932;25.904;2024-02-28T11:01:51;26.63;;;16.53;;
8704;SDS011;4389;41.932;25.904;2024-02-28T11:04:18;30.57;;;14.83;;
8704;SDS011;4389;41.932;25.904;2024-02-28T11:06:48;21.00;;;11.90;;
8704;SDS011;4389;41.932;25.904;2024-02-28T11:09:20;26.97;;;11.80;;
8704;SDS011;4389;41.932;25.904;2024-02-28T11:11:48;22.53;;;12.80;;
8704;SDS011;4389;41.932;25.904;2024-02-28T11:14:16;22.57;;;11.83;;
8704;SDS011;4389;41.932;25.904;2024-02-28T11:16:48;21.33;;;11.37;;
8704;SDS011;4389;41.932;25.904;2024-02-28T11:19:27;20.20;;;11.40;;
8704;SDS011;4389;41.932;25.904;2024-02-28T11:21:54;22.33;;;12.20;;
8704;SDS011;4389;41.932;25.904;2024-02-28T11:24:25;27.37;;;13.53;;
8704;SDS011;4389;41.932;25.904;2024-02-28T11:26:56;25.93;;;11.77;;
8704;SDS011;4389;41.932;25.904;2024-02-28T11:29:24;20.47;;;11.30;;
8704;SDS011;4389;41.932;25.904;2024-02-28T11:31:55;44.13;;;12.47;;
8704;SDS011;4389;41.932;25.904;2024-02-28T11:34:22;20.37;;;12.13;;
8704;SDS011;4389;41.932;25.904;2024-02-28T11:36:49;24.50;;;11.33;;
8704;SDS011;4389;41.932;25.904;2024-02-28T11:39:18;15.10;;;9.90;;
8704;SDS011;4389;41.932;25.904;2024-02-28T11:41:46;16.40;;;10.10;;
8704;SDS011;4389;41.932;25.904;2024-02-28T11:44:15;23.37;;;13.23;;
8704;SDS011;4389;41.932;25.904;2024-02-28T11:46:42;15.27;;;11.07;;
8704;SDS011;4389;41.932;25.904;2024-02-28T11:49:12;19.60;;;10.07;;
8704;SDS011;4389;41.932;25.904;2024-02-28T11:51:40;16.97;;;11.00;;
8704;SDS011;4389;41.932;25.904;2024-02-28T11:54:07;21.83;;;11.30;;
8704;SDS011;4389;41.932;25.904;2024-02-28T11:56:36;15.93;;;10.63;;
8704;SDS011;4389;41.932;25.904;2024-02-28T11:59:04;17.03;;;9.27;;
8704;SDS011;4389;41.932;25.904;2024-02-28T12:01:34;26.63;;;9.33;;
8704;SDS011;4389;41.932;25.904;2024-02-28T12:04:02;16.33;;;10.00;;
8704;SDS011;4389;41.932;25.904;2024-02-28T12:06:32;16.43;;;8.87;;
8704;SDS011;4389;41.932;25.904;2024-02-28T12:08:59;11.97;;;7.87;;
8704;SDS011;4389;41.932;25.904;2024-02-28T12:11:26;14.17;;;7.53;;
8704;SDS011;4389;41.932;25.904;2024-02-28T12:13:54;16.57;;;8.40;;
8704;SDS011;4389;41.932;25.904;2024-02-28T12:16:22;21.07;;;8.53;;
8704;SDS011;4389;41.932;25.904;2024-02-28T12:18:50;18.30;;;8.60;;
8704;SDS011;4389;41.932;25.904;2024-02-28T12:21:17;12.07;;;7.33;;
8704;SDS011;4389;41.932;25.904;2024-02-28T12:23:46;20.43;;;6.97;;
8704;SDS011;4389;41.932;25.904;2024-02-28T12:26:16;11.70;;;7.17;;
8704;SDS011;4389;41.932;25.904;2024-02-28T12:28:43;14.93;;;7.40;;
8704;SDS011;4389;41.932;25.904;2024-02-28T12:31:10;18.27;;;7.97;;
8704;SDS011;4389;41.932;25.904;2024-02-28T12:33:38;20.80;;;7.40;;
8704;SDS011;4389;41.932;25.904;2024-02-28T12:36:05;24.63;;;8.20;;
8704;SDS011;4389;41.932;25.904;2024-02-28T12:38:33;23.13;;;11.27;;
8704;SDS011;4389;41.932;25.904;2024-02-28T12:41:01;20.57;;;8.43;;
8704;SDS011;4389;41.932;25.904;2024-02-28T12:43:29;12.37;;;6.97;;
8704;SDS011;4389;41.932;25.904;2024-02-28T12:45:57;15.00;;;7.60;;
8704;SDS011;4389;41.932;25.904;2024-02-28T12:48:24;13.40;;;7.70;;
8704;SDS011;4389;41.932;25.904;2024-02-28T12:50:50;17.80;;;7.80;;
8704;SDS011;4389;41.932;25.904;2024-02-28T12:53:18;12.07;;;6.50;;
8704;SDS011;4389;41.932;25.904;2024-02-28T12:55:44;14.67;;;6.37;;
8704;SDS011;4389;41.932;25.904;2024-02-28T12:58:12;14.47;;;7.03;;
8704;SDS011;4389;41.932;25.904;2024-02-28T13:00:39;11.40;;;7.13;;
8704;SDS011;4389;41.932;25.904;2024-02-28T13:03:06;23.30;;;7.97;;
8704;SDS011;4389;41.932;25.904;2024-02-28T13:05:33;22.83;;;7.80;;
8704;SDS011;4389;41.932;25.904;2024-02-28T13:08:00;16.00;;;7.90;;
8704;SDS011;4389;41.932;25.904;2024-02-28T13:10:27;20.97;;;11.37;;
8704;SDS011;4389;41.932;25.904;2024-02-28T13:12:55;14.30;;;6.83;;
8704;SDS011;4389;41.932;25.904;2024-02-28T13:15:23;17.40;;;7.50;;
8704;SDS011;4389;41.932;25.904;2024-02-28T13:17:50;16.57;;;7.50;;
8704;SDS011;4389;41.932;25.904;2024-02-28T13:20:17;14.47;;;6.87;;
8704;SDS011;4389;41.932;25.904;2024-02-28T13:22:44;12.30;;;7.57;;
8704;SDS011;4389;41.932;25.904;2024-02-28T13:25:11;17.40;;;7.57;;
8704;SDS011;4389;41.932;25.904;2024-02-28T13:27:39;17.10;;;7.97;;
8704;SDS011;4389;41.932;25.904;2024-02-28T13:30:06;14.63;;;7.67;;
8704;SDS011;4389;41.932;25.904;2024-02-28T13:32:35;33.37;;;8.90;;
8704;SDS011;4389;41.932;25.904;2024-02-28T13:35:02;23.00;;;8.17;;
8704;SDS011;4389;41.932;25.904;2024-02-28T13:37:29;17.10;;;7.23;;
8704;SDS011;4389;41.932;25.904;2024-02-28T13:39:56;19.77;;;7.23;;
8704;SDS011;4389;41.932;25.904;2024-02-28T13:42:23;20.70;;;7.47;;
8704;SDS011;4389;41.932;25.904;2024-02-28T13:44:50;15.33;;;6.37;;
8704;SDS011;4389;41.932;25.904;2024-02-28T13:47:17;12.03;;;5.87;;
8704;SDS011;4389;41.932;25.904;2024-02-28T13:49:45;10.87;;;7.63;;
8704;SDS011;4389;41.932;25.904;2024-02-28T13:52:12;13.80;;;7.57;;
8704;SDS011;4389;41.932;25.904;2024-02-28T13:54:39;17.47;;;7.93;;
8704;SDS011;4389;41.932;25.904;2024-02-28T13:57:06;14.40;;;7.83;;
8704;SDS011;4389;41.932;25.904;2024-02-28T13:59:33;14.67;;;7.73;;
8704;SDS011;4389;41.932;25.904;2024-02-28T14:02:00;13.97;;;7.87;;
8704;SDS011;4389;41.932;25.904;2024-02-28T14:04:27;13.20;;;7.53;;
8704;SDS011;4389;41.932;25.904;2024-02-28T14:06:55;17.83;;;9.03;;
8704;SDS011;4389;41.932;25.904;2024-02-28T14:09:22;19.37;;;8.03;;
8704;SDS011;4389;41.932;25.904;2024-02-28T14:11:49;15.60;;;9.10;;
8704;SDS011;4389;41.932;25.904;2024-02-28T14:14:16;18.57;;;8.43;;
8704;SDS011;4389;41.932;25.904;2024-02-28T14:16:43;20.87;;;10.07;;
8704;SDS011;4389;41.932;25.904;2024-02-28T14:19:10;14.67;;;8.63;;
8704;SDS011;4389;41.932;25.904;2024-02-28T14:21:37;19.10;;;10.03;;
8704;SDS011;4389;41.932;25.904;2024-02-28T14:24:06;17.10;;;9.13;;
8704;SDS011;4389;41.932;25.904;2024-02-28T14:26:33;20.17;;;10.13;;
8704;SDS011;4389;41.932;25.904;2024-02-28T14:28:59;16.77;;;10.73;;
8704;SDS011;4389;41.932;25.904;2024-02-28T14:31:26;20.93;;;11.07;;
8704;SDS011;4389;41.932;25.904;2024-02-28T14:33:53;14.77;;;9.83;;
8704;SDS011;4389;41.932;25.904;2024-02-28T14:36:22;19.60;;;10.63;;